sensor_id;sensor_type;location;lat;lon;timestamp;pressure;altitude;pressure_sealevel;temperature;humidity
65546;BME280;52177;55.968;37.498;2023-04-19T00:00:26;100652.06;;;8.94;46.80
65546;BME280;52177;55.968;37.498;2023-04-19T00:00:57;100653.19;;;8.92;46.79
65546;BME280;52177;55.968;37.498;2023-04-19T00:01:28;100655.84;;;8.92;46.83
65546;BME280;52177;55.968;37.498;2023-04-19T00:01:58;100653.34;;;8.90;46.80
65546;BME280;52177;55.968;37.498;2023-04-19T00:02:29;100646.50;;;8.87;46.89
65546;BME280;52177;55.968;37.498;2023-04-19T00:03:00;100658.09;;;8.86;47.00
65546;BME280;52177;55.968;37.498;2023-04-19T00:03:31;100658.41;;;8.83;46.94
65546;BME280;52177;55.968;37.498;2023-04-19T00:04:01;100657.84;;;8.80;46.90
65546;BME280;52177;55.968;37.498;2023-04-19T00:04:32;100654.34;;;8.79;47.16
65546;BME280;52177;55.968;37.498;2023-04-19T00:05:03;100660.34;;;8.81;47.15
65546;BME280;52177;55.968;37.498;2023-04-19T00:05:33;100653.09;;;8.83;47.17
65546;BME280;52177;55.968;37.498;2023-04-19T00:06:04;100661.88;;;8.84;47.06
65546;BME280;52177;55.968;37.498;2023-04-19T00:06:37;100661.75;;;8.85;46.99
65546;BME280;52177;55.968;37.498;2023-04-19T00:07:10;100664.25;;;8.87;47.08
65546;BME280;52177;55.968;37.498;2023-04-19T00:07:40;100665.94;;;8.88;47.18
65546;BME280;52177;55.968;37.498;2023-04-19T00:08:10;100662.47;;;8.87;47.32
65546;BME280;52177;55.968;37.498;2023-04-19T00:08:42;100665.94;;;8.88;47.25
65546;BME280;52177;55.968;37.498;2023-04-19T00:09:12;100664.97;;;8.89;47.13
65546;BME280;52177;55.968;37.498;2023-04-19T00:09:43;100669.31;;;8.90;47.44
65546;BME280;52177;55.968;37.498;2023-04-19T00:10:13;100668.31;;;8.91;47.59
65546;BME280;52177;55.968;37.498;2023-04-19T00:10:44;100663.84;;;8.92;47.38
65546;BME280;52177;55.968;37.498;2023-04-19T00:11:14;100670.16;;;8.91;47.34
65546;BME280;52177;55.968;37.498;2023-04-19T00:11:45;100666.50;;;8.92;47.10
65546;BME280;52177;55.968;37.498;2023-04-19T00:12:15;100673.50;;;8.93;47.16
65546;BME280;52177;55.968;37.498;2023-04-19T00:12:46;100665.53;;;8.93;47.36
65546;BME280;52177;55.968;37.498;2023-04-19T00:13:16;100664.53;;;8.94;47.38
65546;BME280;52177;55.968;37.498;2023-04-19T00:13:46;100668.88;;;8.95;47.52
65546;BME280;52177;55.968;37.498;2023-04-19T00:14:18;100664.41;;;8.95;47.08
65546;BME280;52177;55.968;37.498;2023-04-19T00:14:48;100663.41;;;8.96;47.00
65546;BME280;52177;55.968;37.498;2023-04-19T00:15:19;100672.25;;;8.97;47.24
65546;BME280;52177;55.968;37.498;2023-04-19T00:15:49;100663.41;;;8.96;47.46
65546;BME280;52177;55.968;37.498;2023-04-19T00:16:19;100665.22;;;8.96;47.37
65546;BME280;52177;55.968;37.498;2023-04-19T00:16:50;100664.41;;;8.95;47.18
65546;BME280;52177;55.968;37.498;2023-04-19T00:17:20;100661.75;;;8.95;47.10
65546;BME280;52177;55.968;37.498;2023-04-19T00:17:51;100671.38;;;8.96;47.21
65546;BME280;52177;55.968;37.498;2023-04-19T00:18:22;100662.56;;;8.96;47.08
65546;BME280;52177;55.968;37.498;2023-04-19T00:18:52;100660.63;;;8.98;46.92
65546;BME280;52177;55.968;37.498;2023-04-19T00:19:23;100664.94;;;8.99;46.77
65546;BME280;52177;55.968;37.498;2023-04-19T00:19:53;100665.94;;;8.98;46.67
65546;BME280;52177;55.968;37.498;2023-04-19T00:20:23;100661.44;;;8.98;46.76
65546;BME280;52177;55.968;37.498;2023-04-19T00:20:54;100660.47;;;8.99;46.91
65546;BME280;52177;55.968;37.498;2023-04-19T00:21:25;100661.31;;;9.00;46.52
65546;BME280;52177;55.968;37.498;2023-04-19T00:21:56;100666.63;;;9.00;46.59
65546;BME280;52177;55.968;37.498;2023-04-19T00:22:27;100665.81;;;8.99;46.59
65546;BME280;52177;55.968;37.498;2023-04-19T00:22:57;100662.28;;;8.99;46.33
65546;BME280;52177;55.968;37.498;2023-04-19T00:23:28;100664.94;;;8.99;46.30
65546;BME280;52177;55.968;37.498;2023-04-19T00:23:58;100670.13;;;9.00;46.23
65546;BME280;52177;55.968;37.498;2023-04-19T00:24:29;100668.31;;;9.01;46.38
65546;BME280;52177;55.968;37.498;2023-04-19T00:25:00;100663.84;;;9.01;46.24
65546;BME280;52177;55.968;37.498;2023-04-19T00:25:30;100672.66;;;9.02;46.37
65546;BME280;52177;55.968;37.498;2023-04-19T00:26:02;100673.63;;;9.01;46.33
65546;BME280;52177;55.968;37.498;2023-04-19T00:26:33;100670.97;;;9.01;46.22
65546;BME280;52177;55.968;37.498;2023-04-19T00:27:04;100666.50;;;9.01;46.32
65546;BME280;52177;55.968;37.498;2023-04-19T00:27:34;100667.34;;;9.02;46.29
65546;BME280;52177;55.968;37.498;2023-04-19T00:28:04;100671.81;;;9.01;46.42
65546;BME280;52177;55.968;37.498;2023-04-19T00:28:35;100675.31;;;9.02;46.39
65546;BME280;52177;55.968;37.498;2023-04-19T00:29:05;100669.00;;;9.03;46.31
65546;BME280;52177;55.968;37.498;2023-04-19T00:29:36;100664.50;;;9.03;46.31
65546;BME280;52177;55.968;37.498;2023-04-19T00:30:06;100672.34;;;9.05;46.30
65546;BME280;52177;55.968;37.498;2023-04-19T00:30:37;100668.88;;;9.04;46.26
65546;BME280;52177;55.968;37.498;2023-04-19T00:31:07;100673.34;;;9.04;46.38
65546;BME280;52177;55.968;37.498;2023-04-19T00:31:37;100671.66;;;9.03;46.17
65546;BME280;52177;55.968;37.498;2023-04-19T00:32:09;100662.03;;;9.02;45.95
65546;BME280;52177;55.968;37.498;2023-04-19T00:32:40;100662.97;;;9.01;45.59
65546;BME280;52177;55.968;37.498;2023-04-19T00:33:10;100660.31;;;9.01;45.83
65546;BME280;52177;55.968;37.498;2023-04-19T00:33:44;100665.81;;;8.99;45.80
65546;BME280;52177;55.968;37.498;2023-04-19T00:34:14;100667.47;;;9.00;45.76
65546;BME280;52177;55.968;37.498;2023-04-19T00:34:45;100669.28;;;9.00;45.86
65546;BME280;52177;55.968;37.498;2023-04-19T00:35:15;100662.03;;;9.02;45.97
65546;BME280;52177;55.968;37.498;2023-04-19T00:35:45;100662.72;;;9.04;45.94
65546;BME280;52177;55.968;37.498;2023-04-19T00:36:16;100665.38;;;9.04;45.79
65546;BME280;52177;55.968;37.498;2023-04-19T00:36:46;100660.06;;;9.04;46.11
65546;BME280;52177;55.968;37.498;2023-04-19T00:37:17;100660.88;;;9.04;46.02
65546;BME280;52177;55.968;37.498;2023-04-19T00:37:47;100662.72;;;9.04;46.15
65546;BME280;52177;55.968;37.498;2023-04-19T00:38:17;100661.72;;;9.05;46.14
65546;BME280;52177;55.968;37.498;2023-04-19T00:38:48;100662.72;;;9.04;46.26
65546;BME280;52177;55.968;37.498;2023-04-19T00:39:18;100668.03;;;9.04;46.08
65546;BME280;52177;55.968;37.498;2023-04-19T00:39:49;100660.06;;;9.04;45.75
65546;BME280;52177;55.968;37.498;2023-04-19T00:40:19;100660.06;;;9.04;45.87
65546;BME280;52177;55.968;37.498;2023-04-19T00:40:49;100661.03;;;9.03;45.84
65546;BME280;52177;55.968;37.498;2023-04-19T00:41:20;100655.69;;;9.03;45.68
65546;BME280;52177;55.968;37.498;2023-04-19T00:41:50;100663.69;;;9.03;45.65
65546;BME280;52177;55.968;37.498;2023-04-19T00:42:22;100664.50;;;9.03;45.80
65546;BME280;52177;55.968;37.498;2023-04-19T00:42:52;100666.22;;;9.04;45.81
65546;BME280;52177;55.968;37.498;2023-04-19T00:43:22;100663.56;;;9.04;45.93
65546;BME280;52177;55.968;37.498;2023-04-19T00:43:53;100673.19;;;9.05;45.83
65546;BME280;52177;55.968;37.498;2023-04-19T00:44:23;100658.94;;;9.06;46.00
65546;BME280;52177;55.968;37.498;2023-04-19T00:44:53;100666.03;;;9.06;45.87
65546;BME280;52177;55.968;37.498;2023-04-19T00:45:24;100658.94;;;9.06;45.75
65546;BME280;52177;55.968;37.498;2023-04-19T00:45:55;100667.75;;;9.07;45.60
65546;BME280;52177;55.968;37.498;2023-04-19T00:46:26;100664.25;;;9.06;45.58
65546;BME280;52177;55.968;37.498;2023-04-19T00:46:56;100669.56;;;9.06;45.63
65546;BME280;52177;55.968;37.498;2023-04-19T00:47:27;100670.41;;;9.07;45.69
65546;BME280;52177;55.968;37.498;2023-04-19T00:47:58;100665.09;;;9.07;45.53
65546;BME280;52177;55.968;37.498;2023-04-19T00:48:29;100668.56;;;9.07;45.66
65546;BME280;52177;55.968;37.498;2023-04-19T00:49:00;100669.41;;;9.08;45.52
65546;BME280;52177;55.968;37.498;2023-04-19T00:49:30;100669.41;;;9.08;45.56
65546;BME280;52177;55.968;37.498;2023-04-19T00:50:02;100663.13;;;9.09;45.40
65546;BME280;52177;55.968;37.498;2023-04-19T00:50:33;100668.44;;;9.09;45.45
65546;BME280;52177;55.968;37.498;2023-04-19T00:51:05;100662.28;;;9.08;45.32
65546;BME280;52177;55.968;37.498;2023-04-19T00:51:35;100662.28;;;9.08;45.55
65546;BME280;52177;55.968;37.498;2023-04-19T00:52:06;100665.78;;;9.09;45.50
65546;BME280;52177;55.968;37.498;2023-04-19T00:52:37;100669.28;;;9.09;45.39
65546;BME280;52177;55.968;37.498;2023-04-19T00:53:08;100663.13;;;9.09;45.38
65546;BME280;52177;55.968;37.498;2023-04-19T00:53:40;100667.59;;;9.08;45.49
65546;BME280;52177;55.968;37.498;2023-04-19T00:54:10;100664.09;;;9.08;45.70
65546;BME280;52177;55.968;37.498;2023-04-19T00:54:42;100667.75;;;9.07;45.52
65546;BME280;52177;55.968;37.498;2023-04-19T00:55:13;100663.25;;;9.07;45.58
65546;BME280;52177;55.968;37.498;2023-04-19T00:55:44;100668.88;;;9.04;45.30
65546;BME280;52177;55.968;37.498;2023-04-19T00:56:15;100672.34;;;9.05;45.25
65546;BME280;52177;55.968;37.498;2023-04-19T00:56:46;100671.81;;;9.01;44.54
65546;BME280;52177;55.968;37.498;2023-04-19T00:57:17;100669.28;;;9.00;44.82
65546;BME280;52177;55.968;37.498;2023-04-19T00:57:47;100670.13;;;9.00;44.87
65546;BME280;52177;55.968;37.498;2023-04-19T00:58:18;100665.63;;;9.01;45.03
65546;BME280;52177;55.968;37.498;2023-04-19T00:58:48;100673.78;;;8.99;45.09
65546;BME280;52177;55.968;37.498;2023-04-19T00:59:20;100666.63;;;9.00;44.95
65546;BME280;52177;55.968;37.498;2023-04-19T00:59:50;100678.09;;;9.00;45.01
65546;BME280;52177;55.968;37.498;2023-04-19T01:00:21;100663.97;;;9.00;44.90
65546;BME280;52177;55.968;37.498;2023-04-19T01:00:51;100663.97;;;9.00;44.91
65546;BME280;52177;55.968;37.498;2023-04-19T01:01:22;100670.13;;;9.00;44.99
65546;BME280;52177;55.968;37.498;2023-04-19T01:01:53;100670.97;;;9.01;45.45
65546;BME280;52177;55.968;37.498;2023-04-19T01:02:23;100670.00;;;9.02;45.21
65546;BME280;52177;55.968;37.498;2023-04-19T01:02:53;100669.16;;;9.01;45.02
65546;BME280;52177;55.968;37.498;2023-04-19T01:03:24;100665.63;;;9.01;44.77
65546;BME280;52177;55.968;37.498;2023-04-19T01:03:56;100675.75;;;8.97;44.66
65546;BME280;52177;55.968;37.498;2023-04-19T01:04:27;100665.09;;;8.97;44.54
65546;BME280;52177;55.968;37.498;2023-04-19T01:04:57;100666.94;;;8.97;44.60
65546;BME280;52177;55.968;37.498;2023-04-19T01:05:27;100666.94;;;8.97;44.48
65546;BME280;52177;55.968;37.498;2023-04-19T01:05:58;100666.78;;;8.98;44.48
65546;BME280;52177;55.968;37.498;2023-04-19T01:06:29;100662.28;;;8.99;44.53
65546;BME280;52177;55.968;37.498;2023-04-19T01:07:01;100669.28;;;9.00;44.26
65546;BME280;52177;55.968;37.498;2023-04-19T01:07:33;100667.47;;;9.00;44.39
65546;BME280;52177;55.968;37.498;2023-04-19T01:08:04;100661.19;;;9.01;44.50
65546;BME280;52177;55.968;37.498;2023-04-19T01:08:34;100666.50;;;9.01;44.57
65546;BME280;52177;55.968;37.498;2023-04-19T01:09:05;100659.34;;;9.02;44.46
65546;BME280;52177;55.968;37.498;2023-04-19T01:09:39;100675.16;;;9.03;44.05
65546;BME280;52177;55.968;37.498;2023-04-19T01:10:10;100666.50;;;9.01;44.13
65546;BME280;52177;55.968;37.498;2023-04-19T01:10:40;100659.50;;;9.00;44.19
65546;BME280;52177;55.968;37.498;2023-04-19T01:11:10;100667.47;;;9.00;44.47
65546;BME280;52177;55.968;37.498;2023-04-19T01:11:41;100662.16;;;9.00;44.52
65546;BME280;52177;55.968;37.498;2023-04-19T01:12:11;100666.63;;;9.00;44.50
65546;BME280;52177;55.968;37.498;2023-04-19T01:12:41;100671.97;;;9.00;44.25
65546;BME280;52177;55.968;37.498;2023-04-19T01:13:12;100660.47;;;8.99;44.18
65546;BME280;52177;55.968;37.498;2023-04-19T01:13:42;100662.44;;;8.97;44.12
65546;BME280;52177;55.968;37.498;2023-04-19T01:14:12;100665.09;;;8.97;44.10
65546;BME280;52177;55.968;37.498;2023-04-19T01:14:43;100666.94;;;8.97;44.29
65546;BME280;52177;55.968;37.498;2023-04-19T01:15:13;100668.72;;;8.96;44.15
65546;BME280;52177;55.968;37.498;2023-04-19T01:15:43;100668.59;;;8.98;44.22
65546;BME280;52177;55.968;37.498;2023-04-19T01:16:14;100659.78;;;8.97;44.18
65546;BME280;52177;55.968;37.498;2023-04-19T01:16:45;100660.63;;;8.98;43.89
65546;BME280;52177;55.968;37.498;2023-04-19T01:17:15;100668.47;;;8.99;43.83
65546;BME280;52177;55.968;37.498;2023-04-19T01:17:47;100670.13;;;9.00;43.91
65546;BME280;52177;55.968;37.498;2023-04-19T01:18:17;100664.69;;;9.02;44.26
65546;BME280;52177;55.968;37.498;2023-04-19T01:18:48;100665.50;;;9.02;44.36
65546;BME280;52177;55.968;37.498;2023-04-19T01:19:18;100665.38;;;9.04;44.27
65546;BME280;52177;55.968;37.498;2023-04-19T01:19:58;100662.03;;;9.02;44.18
65546;BME280;52177;55.968;37.498;2023-04-19T01:20:28;100664.50;;;9.03;44.12
65546;BME280;52177;55.968;37.498;2023-04-19T01:20:58;100658.53;;;9.01;44.12
65546;BME280;52177;55.968;37.498;2023-04-19T01:21:29;100666.50;;;9.01;44.05
65546;BME280;52177;55.968;37.498;2023-04-19T01:22:01;100667.34;;;9.02;43.90
65546;BME280;52177;55.968;37.498;2023-04-19T01:22:36;100666.34;;;9.03;43.84
65546;BME280;52177;55.968;37.498;2023-04-19T01:23:06;100664.50;;;9.03;43.69
65546;BME280;52177;55.968;37.498;2023-04-19T01:23:40;100665.38;;;9.04;43.95
65546;BME280;52177;55.968;37.498;2023-04-19T01:24:11;100666.22;;;9.04;44.20
65546;BME280;52177;55.968;37.498;2023-04-19T01:24:41;100661.72;;;9.05;44.07
65546;BME280;52177;55.968;37.498;2023-04-19T01:25:11;100665.38;;;9.04;44.00
65546;BME280;52177;55.968;37.498;2023-04-19T01:25:42;100662.84;;;9.02;44.10
65546;BME280;52177;55.968;37.498;2023-04-19T01:26:12;100662.03;;;9.02;43.90
65546;BME280;52177;55.968;37.498;2023-04-19T01:26:42;100666.50;;;9.01;43.85
65546;BME280;52177;55.968;37.498;2023-04-19T01:27:13;100665.63;;;9.01;43.98
65546;BME280;52177;55.968;37.498;2023-04-19T01:27:45;100660.47;;;8.99;43.76
65546;BME280;52177;55.968;37.498;2023-04-19T01:28:16;100659.63;;;8.99;43.95
65546;BME280;52177;55.968;37.498;2023-04-19T01:28:46;100669.16;;;9.01;43.71
65546;BME280;52177;55.968;37.498;2023-04-19T01:29:16;100669.28;;;9.00;44.07
65546;BME280;52177;55.968;37.498;2023-04-19T01:29:50;100665.94;;;8.98;44.04
65546;BME280;52177;55.968;37.498;2023-04-19T01:30:21;100666.78;;;8.98;43.95
65546;BME280;52177;55.968;37.498;2023-04-19T01:30:51;100663.41;;;8.96;44.04
65546;BME280;52177;55.968;37.498;2023-04-19T01:31:23;100664.28;;;8.97;44.11
65546;BME280;52177;55.968;37.498;2023-04-19T01:31:53;100663.28;;;8.98;44.41
65546;BME280;52177;55.968;37.498;2023-04-19T01:32:23;100667.59;;;8.99;44.37
65546;BME280;52177;55.968;37.498;2023-04-19T01:32:55;100656.97;;;8.99;44.25
65546;BME280;52177;55.968;37.498;2023-04-19T01:33:25;100664.94;;;8.99;44.65
65546;BME280;52177;55.968;37.498;2023-04-19T01:33:56;100663.28;;;8.98;44.34
65546;BME280;52177;55.968;37.498;2023-04-19T01:34:26;100665.94;;;8.98;44.28
65546;BME280;52177;55.968;37.498;2023-04-19T01:34:56;100659.78;;;8.97;44.18
65546;BME280;52177;55.968;37.498;2023-04-19T01:35:27;100664.09;;;8.98;44.30
65546;BME280;52177;55.968;37.498;2023-04-19T01:35:57;100660.63;;;8.98;44.67
65546;BME280;52177;55.968;37.498;2023-04-19T01:36:27;100657.13;;;8.97;44.51
65546;BME280;52177;55.968;37.498;2023-04-19T01:36:58;100659.78;;;8.97;44.17
65546;BME280;52177;55.968;37.498;2023-04-19T01:37:28;100658.78;;;8.98;44.29
65546;BME280;52177;55.968;37.498;2023-04-19T01:37:58;100662.16;;;9.00;44.26
65546;BME280;52177;55.968;37.498;2023-04-19T01:38:30;100662.28;;;8.99;44.17
65546;BME280;52177;55.968;37.498;2023-04-19T01:39:00;100663.97;;;9.00;44.28
65546;BME280;52177;55.968;37.498;2023-04-19T01:39:30;100662.97;;;9.01;44.21
65546;BME280;52177;55.968;37.498;2023-04-19T01:40:05;100655.88;;;9.01;44.17
65546;BME280;52177;55.968;37.498;2023-04-19T01:40:35;100659.34;;;9.02;44.05
65546;BME280;52177;55.968;37.498;2023-04-19T01:41:05;100660.19;;;9.02;43.96
65546;BME280;52177;55.968;37.498;2023-04-19T01:41:37;100664.81;;;9.00;44.19
65546;BME280;52177;55.968;37.498;2023-04-19T01:42:07;100662.28;;;8.99;44.35
65546;BME280;52177;55.968;37.498;2023-04-19T01:42:37;100659.63;;;8.99;44.15
65546;BME280;52177;55.968;37.498;2023-04-19T01:43:11;100655.16;;;8.99;44.00
65546;BME280;52177;55.968;37.498;2023-04-19T01:43:42;100664.94;;;8.99;43.84
65546;BME280;52177;55.968;37.498;2023-04-19T01:44:12;100662.28;;;8.99;43.94
65546;BME280;52177;55.968;37.498;2023-04-19T01:44:42;100657.97;;;8.98;43.85
65546;BME280;52177;55.968;37.498;2023-04-19T01:45:13;100660.63;;;8.98;43.87
65546;BME280;52177;55.968;37.498;2023-04-19T01:45:43;100659.78;;;8.97;43.96
65546;BME280;52177;55.968;37.498;2023-04-19T01:46:14;100658.94;;;8.97;44.01
65546;BME280;52177;55.968;37.498;2023-04-19T01:46:45;100664.28;;;8.97;43.81
65546;BME280;52177;55.968;37.498;2023-04-19T01:47:15;100660.91;;;8.95;43.92
65546;BME280;52177;55.968;37.498;2023-04-19T01:47:45;100662.56;;;8.96;43.82
65546;BME280;52177;55.968;37.498;2023-04-19T01:48:16;100670.56;;;8.96;43.71
65546;BME280;52177;55.968;37.498;2023-04-19T01:48:46;100668.88;;;8.95;43.94
65546;BME280;52177;55.968;37.498;2023-04-19T01:49:16;100671.56;;;8.95;44.11
65546;BME280;52177;55.968;37.498;2023-04-19T01:49:47;100668.88;;;8.95;43.93
65546;BME280;52177;55.968;37.498;2023-04-19T01:50:17;100665.09;;;8.97;43.94
65546;BME280;52177;55.968;37.498;2023-04-19T01:50:47;100673.09;;;8.97;43.97
65546;BME280;52177;55.968;37.498;2023-04-19T01:51:18;100662.44;;;8.97;44.21
65546;BME280;52177;55.968;37.498;2023-04-19T01:51:50;100660.75;;;8.96;44.19
65546;BME280;52177;55.968;37.498;2023-04-19T01:52:21;100659.91;;;8.96;44.00
65546;BME280;52177;55.968;37.498;2023-04-19T01:52:51;100667.75;;;8.97;43.97
65546;BME280;52177;55.968;37.498;2023-04-19T01:53:22;100663.41;;;8.96;44.12
65546;BME280;52177;55.968;37.498;2023-04-19T01:53:52;100668.88;;;8.95;43.90
65546;BME280;52177;55.968;37.498;2023-04-19T01:54:23;100663.56;;;8.95;44.04
65546;BME280;52177;55.968;37.498;2023-04-19T01:54:54;100656.56;;;8.94;44.41
65546;BME280;52177;55.968;37.498;2023-04-19T01:55:25;100667.19;;;8.94;44.47
65546;BME280;52177;55.968;37.498;2023-04-19T01:55:55;100658.25;;;8.95;44.12
65546;BME280;52177;55.968;37.498;2023-04-19T01:56:25;100658.38;;;8.93;44.00
65546;BME280;52177;55.968;37.498;2023-04-19T01:56:56;100667.34;;;8.92;43.98
65546;BME280;52177;55.968;37.498;2023-04-19T01:57:26;100668.19;;;8.93;44.18
65546;BME280;52177;55.968;37.498;2023-04-19T01:57:56;100664.53;;;8.94;44.23
65546;BME280;52177;55.968;37.498;2023-04-19T01:58:27;100667.06;;;8.95;44.21
65546;BME280;52177;55.968;37.498;2023-04-19T01:58:57;100663.41;;;8.96;44.17
65546;BME280;52177;55.968;37.498;2023-04-19T01:59:28;100661.63;;;8.97;44.46
65546;BME280;52177;55.968;37.498;2023-04-19T01:59:58;100667.59;;;8.99;44.40
65546;BME280;52177;55.968;37.498;2023-04-19T02:00:28;100666.50;;;9.01;44.35
65546;BME280;52177;55.968;37.498;2023-04-19T02:00:59;100656.97;;;8.99;44.50
65546;BME280;52177;55.968;37.498;2023-04-19T02:01:29;100662.28;;;8.99;44.39
65546;BME280;52177;55.968;37.498;2023-04-19T02:02:00;100663.16;;;8.99;44.21
65546;BME280;52177;55.968;37.498;2023-04-19T02:02:30;100662.28;;;8.99;44.37
65546;BME280;52177;55.968;37.498;2023-04-19T02:03:01;100657.13;;;8.97;44.40
65546;BME280;52177;55.968;37.498;2023-04-19T02:03:31;100659.78;;;8.97;44.33
65546;BME280;52177;55.968;37.498;2023-04-19T02:04:01;100662.44;;;8.97;44.26
65546;BME280;52177;55.968;37.498;2023-04-19T02:04:32;100664.28;;;8.97;44.29
65546;BME280;52177;55.968;37.498;2023-04-19T02:05:06;100666.94;;;8.97;44.21
65546;BME280;52177;55.968;37.498;2023-04-19T02:05:38;100660.91;;;8.95;44.30
65546;BME280;52177;55.968;37.498;2023-04-19T02:06:12;100669.72;;;8.95;44.56
65546;BME280;52177;55.968;37.498;2023-04-19T02:06:42;100672.38;;;8.95;44.38
65546;BME280;52177;55.968;37.498;2023-04-19T02:07:13;100670.56;;;8.96;44.31
65546;BME280;52177;55.968;37.498;2023-04-19T02:07:43;100668.88;;;8.95;44.53
65546;BME280;52177;55.968;37.498;2023-04-19T02:08:13;100668.03;;;8.94;44.47
65546;BME280;52177;55.968;37.498;2023-04-19T02:08:44;100657.38;;;8.94;44.29
65546;BME280;52177;55.968;37.498;2023-04-19T02:09:14;100659.22;;;8.94;44.83
65546;BME280;52177;55.968;37.498;2023-04-19T02:09:45;100661.03;;;8.93;44.93
65546;BME280;52177;55.968;37.498;2023-04-19T02:10:15;100663.00;;;8.91;45.00
65546;BME280;52177;55.968;37.498;2023-04-19T02:10:45;100661.34;;;8.90;44.98
65546;BME280;52177;55.968;37.498;2023-04-19T02:11:16;100667.63;;;8.89;44.71
65546;BME280;52177;55.968;37.498;2023-04-19T02:11:46;100661.47;;;8.88;44.64
65546;BME280;52177;55.968;37.498;2023-04-19T02:12:16;100665.25;;;8.86;44.68
65546;BME280;52177;55.968;37.498;2023-04-19T02:12:47;100665.53;;;8.83;44.68
65546;BME280;52177;55.968;37.498;2023-04-19T02:13:17;100661.06;;;8.83;44.65
65546;BME280;52177;55.968;37.498;2023-04-19T02:13:48;100662.03;;;8.82;44.57
65546;BME280;52177;55.968;37.498;2023-04-19T02:14:18;100654.91;;;8.83;44.71
65546;BME280;52177;55.968;37.498;2023-04-19T02:14:48;100660.22;;;8.83;44.92
65546;BME280;52177;55.968;37.498;2023-04-19T02:15:19;100662.88;;;8.83;44.94
65546;BME280;52177;55.968;37.498;2023-04-19T02:15:49;100666.38;;;8.83;45.07
65546;BME280;52177;55.968;37.498;2023-04-19T02:16:19;100663.72;;;8.83;44.88
65546;BME280;52177;55.968;37.498;2023-04-19T02:16:50;100660.22;;;8.83;44.77
65546;BME280;52177;55.968;37.498;2023-04-19T02:17:20;100670.16;;;8.81;44.89
65546;BME280;52177;55.968;37.498;2023-04-19T02:17:51;100663.00;;;8.81;44.81
65546;BME280;52177;55.968;37.498;2023-04-19T02:18:21;100670.00;;;8.82;44.80
65546;BME280;52177;55.968;37.498;2023-04-19T02:18:53;100663.84;;;8.82;44.82
65546;BME280;52177;55.968;37.498;2023-04-19T02:19:23;100671.00;;;8.81;44.87
65546;BME280;52177;55.968;37.498;2023-04-19T02:19:54;100665.53;;;8.83;44.91
65546;BME280;52177;55.968;37.498;2023-04-19T02:20:24;100667.34;;;8.82;44.96
65546;BME280;52177;55.968;37.498;2023-04-19T02:20:55;100663.72;;;8.83;44.94
65546;BME280;52177;55.968;37.498;2023-04-19T02:21:26;100661.19;;;8.82;44.93
65546;BME280;52177;55.968;37.498;2023-04-19T02:21:56;100658.53;;;8.82;45.00
65546;BME280;52177;55.968;37.498;2023-04-19T02:22:27;100666.50;;;8.82;45.06
65546;BME280;52177;55.968;37.498;2023-04-19T02:22:57;100660.34;;;8.81;45.13
65546;BME280;52177;55.968;37.498;2023-04-19T02:23:27;100665.69;;;8.81;45.30
65546;BME280;52177;55.968;37.498;2023-04-19T02:23:58;100663.00;;;8.81;45.26
65546;BME280;52177;55.968;37.498;2023-04-19T02:24:28;100661.34;;;8.80;45.23
65546;BME280;52177;55.968;37.498;2023-04-19T02:24:58;100665.69;;;8.81;45.14
65546;BME280;52177;55.968;37.498;2023-04-19T02:25:29;100664.69;;;8.82;45.29
65546;BME280;52177;55.968;37.498;2023-04-19T02:26:00;100664.00;;;8.80;45.48
65546;BME280;52177;55.968;37.498;2023-04-19T02:26:32;100664.00;;;8.80;45.21
65546;BME280;52177;55.968;37.498;2023-04-19T02:27:03;100660.50;;;8.80;45.19
65546;BME280;52177;55.968;37.498;2023-04-19T02:27:33;100665.09;;;8.78;45.24
65546;BME280;52177;55.968;37.498;2023-04-19T02:28:03;100667.91;;;8.76;45.20
65546;BME280;52177;55.968;37.498;2023-04-19T02:28:34;100661.78;;;8.76;45.52
65546;BME280;52177;55.968;37.498;2023-04-19T02:29:05;100663.44;;;8.77;45.33
65546;BME280;52177;55.968;37.498;2023-04-19T02:29:37;100666.94;;;8.77;45.33
65546;BME280;52177;55.968;37.498;2023-04-19T02:30:08;100663.44;;;8.77;45.50
65546;BME280;52177;55.968;37.498;2023-04-19T02:30:38;100667.09;;;8.76;45.50
65546;BME280;52177;55.968;37.498;2023-04-19T02:31:09;100663.72;;;8.74;45.86
65546;BME280;52177;55.968;37.498;2023-04-19T02:31:39;100667.34;;;8.73;45.73
65546;BME280;52177;55.968;37.498;2023-04-19T02:32:12;100671.97;;;8.71;45.34
65546;BME280;52177;55.968;37.498;2023-04-19T02:32:42;100665.81;;;8.70;45.22
65546;BME280;52177;55.968;37.498;2023-04-19T02:33:14;100666.81;;;8.69;45.30
65546;BME280;52177;55.968;37.498;2023-04-19T02:33:45;100664.97;;;8.70;45.22
65546;BME280;52177;55.968;37.498;2023-04-19T02:34:15;100667.63;;;8.70;45.26
65546;BME280;52177;55.968;37.498;2023-04-19T02:34:46;100672.97;;;8.70;45.26
65546;BME280;52177;55.968;37.498;2023-04-19T02:35:16;100664.00;;;8.71;45.22
65546;BME280;52177;55.968;37.498;2023-04-19T02:35:46;100664.97;;;8.70;45.02
65546;BME280;52177;55.968;37.498;2023-04-19T02:36:17;100668.47;;;8.70;44.98
65546;BME280;52177;55.968;37.498;2023-04-19T02:36:47;100668.34;;;8.72;45.17
65546;BME280;52177;55.968;37.498;2023-04-19T02:37:18;100666.53;;;8.72;45.34
65546;BME280;52177;55.968;37.498;2023-04-19T02:37:48;100664.69;;;8.73;45.44
65546;BME280;52177;55.968;37.498;2023-04-19T02:38:18;100677.16;;;8.72;45.31
65546;BME280;52177;55.968;37.498;2023-04-19T02:38:49;100666.53;;;8.72;45.08
65546;BME280;52177;55.968;37.498;2023-04-19T02:39:19;100671.72;;;8.74;45.16
65546;BME280;52177;55.968;37.498;2023-04-19T02:39:50;100669.88;;;8.74;45.05
65546;BME280;52177;55.968;37.498;2023-04-19T02:40:20;100672.41;;;8.76;45.04
65546;BME280;52177;55.968;37.498;2023-04-19T02:40:52;100673.38;;;8.75;44.96